createdAt,value
2023-05-19T00:00:26.008Z,5.95
2023-05-19T00:01:26.028Z,5.96
2023-05-19T00:02:26.291Z,5.98
2023-05-19T00:03:26.005Z,5.95
2023-05-19T00:04:25.965Z,5.92
2023-05-19T00:05:25.971Z,5.99
2023-05-19T00:06:25.945Z,5.98
2023-05-19T00:07:25.954Z,6.11
2023-05-19T00:08:25.928Z,6.10
2023-05-19T00:09:25.908Z,6.08
2023-05-19T00:10:25.920Z,5.92
2023-05-19T00:11:25.889Z,5.90
2023-05-19T00:12:25.885Z,5.92
2023-05-19T00:13:25.910Z,5.95
2023-05-19T00:14:25.859Z,5.98
2023-05-19T00:15:25.872Z,5.90
2023-05-19T00:16:25.888Z,5.90
2023-05-19T00:17:25.889Z,5.93
2023-05-19T00:18:25.822Z,5.88
2023-05-19T00:19:25.857Z,5.84
2023-05-19T00:20:25.790Z,5.90
2023-05-19T00:21:25.795Z,5.93
2023-05-19T00:22:25.780Z,5.95
2023-05-19T00:23:25.765Z,5.99
2023-05-19T00:24:25.760Z,6.11
2023-05-19T00:25:25.759Z,6.06
2023-05-19T00:26:25.734Z,5.99
2023-05-19T00:27:25.716Z,6.03
2023-05-19T00:28:25.702Z,6.08
2023-05-19T00:29:25.708Z,6.16
2023-05-19T00:30:25.684Z,6.14
2023-05-19T00:31:25.749Z,6.06
2023-05-19T00:32:25.714Z,6.05
2023-05-19T00:33:25.690Z,6.13
2023-05-19T00:34:25.653Z,5.96
2023-05-19T00:35:25.635Z,6.01
2023-05-19T00:36:25.617Z,6.02
2023-05-19T00:37:25.626Z,6.06
2023-05-19T00:38:25.597Z,5.98
2023-05-19T00:39:25.607Z,5.96
2023-05-19T00:40:25.595Z,5.99
2023-05-19T00:41:25.578Z,5.88
2023-05-19T00:42:25.553Z,6.10
2023-05-19T00:43:25.565Z,5.99
2023-05-19T00:44:25.533Z,5.96
2023-05-19T00:45:25.538Z,5.92
2023-05-19T00:46:25.541Z,5.88
2023-05-19T00:47:25.574Z,5.93
2023-05-19T00:48:25.487Z,5.95
2023-05-19T00:49:25.509Z,5.92
2023-05-19T00:50:25.470Z,5.93
2023-05-19T00:51:25.468Z,5.85
2023-05-19T00:52:25.447Z,6.02
2023-05-19T00:53:25.437Z,5.85
2023-05-19T00:54:25.423Z,5.84
2023-05-19T00:55:25.453Z,5.87
2023-05-19T00:56:25.403Z,5.88
2023-05-19T00:57:25.394Z,5.84
2023-05-19T00:58:25.377Z,5.87
2023-05-19T00:59:25.370Z,5.84
2023-05-19T01:00:25.360Z,5.88
2023-05-19T01:01:25.452Z,5.88
2023-05-19T01:02:25.458Z,5.98
2023-05-19T01:03:25.542Z,5.93
2023-05-19T01:04:25.318Z,5.99
2023-05-19T01:05:25.334Z,5.88
2023-05-19T01:06:25.296Z,5.83
2023-05-19T01:07:25.329Z,5.88
2023-05-19T01:08:25.273Z,5.88
2023-05-19T01:09:25.264Z,5.96
2023-05-19T01:10:25.260Z,5.90
2023-05-19T01:11:25.247Z,5.80
2023-05-19T01:12:25.240Z,5.90
2023-05-19T01:13:25.239Z,5.77
2023-05-19T01:14:25.214Z,5.84
2023-05-19T01:15:25.205Z,5.81
2023-05-19T01:16:25.209Z,5.88
2023-05-19T01:17:25.210Z,6.05
2023-05-19T01:18:25.180Z,5.83
2023-05-19T01:19:25.429Z,5.92
2023-05-19T01:20:25.147Z,5.88
2023-05-19T01:21:25.160Z,5.98
2023-05-19T01:22:25.122Z,5.88
2023-05-19T01:23:25.116Z,5.77
2023-05-19T01:24:25.111Z,5.83
2023-05-19T01:25:25.127Z,5.85
2023-05-19T01:26:25.080Z,5.78
2023-05-19T01:27:25.089Z,5.77
2023-05-19T01:28:25.057Z,5.73
2023-05-19T01:29:25.055Z,5.70
2023-05-19T01:30:25.037Z,5.73
2023-05-19T01:31:25.111Z,5.58
2023-05-19T01:32:25.066Z,5.73
2023-05-19T01:33:25.007Z,5.66
2023-05-19T01:34:24.995Z,5.65
2023-05-19T01:35:25.004Z,5.65
2023-05-19T01:36:24.977Z,5.65
2023-05-19T01:37:24.991Z,5.66
2023-05-19T01:38:24.970Z,5.60
2023-05-19T01:39:24.950Z,5.63
2023-05-19T01:40:24.934Z,5.70
2023-05-19T01:41:24.924Z,5.63
2023-05-19T01:42:24.911Z,5.63
2023-05-19T01:43:24.945Z,5.62
2023-05-19T01:44:24.908Z,5.60
2023-05-19T01:45:24.884Z,5.62
2023-05-19T01:46:24.993Z,5.51
2023-05-19T01:47:24.875Z,5.65
2023-05-19T01:48:24.855Z,5.66
2023-05-19T01:49:24.868Z,5.67
2023-05-19T01:50:24.854Z,5.73
2023-05-19T01:51:24.815Z,5.67
2023-05-19T01:52:24.827Z,5.84
2023-05-19T01:53:24.883Z,5.66
2023-05-19T01:54:24.802Z,5.74
2023-05-19T01:55:24.794Z,5.73
2023-05-19T01:56:24.761Z,5.75
2023-05-19T01:57:24.759Z,5.70
2023-05-19T01:58:24.753Z,5.78
2023-05-19T01:59:24.735Z,5.70
2023-05-19T02:00:24.723Z,5.69
2023-05-19T02:01:24.778Z,5.85
2023-05-19T02:02:24.755Z,5.78
2023-05-19T02:03:24.708Z,5.90
2023-05-19T02:04:24.806Z,5.83
2023-05-19T02:05:24.679Z,5.83
2023-05-19T02:06:24.682Z,5.69
2023-05-19T02:07:24.698Z,5.87
2023-05-19T02:08:24.680Z,5.77
2023-05-19T02:09:24.638Z,5.75
2023-05-19T02:10:24.626Z,5.73
2023-05-19T02:11:24.608Z,5.77
2023-05-19T02:12:24.598Z,5.84
2023-05-19T02:13:24.619Z,5.81
2023-05-19T02:14:24.569Z,5.85
2023-05-19T02:15:24.558Z,5.85
2023-05-19T02:16:24.673Z,5.87
2023-05-19T02:17:24.570Z,5.84
2023-05-19T02:18:24.545Z,5.70
2023-05-19T02:19:24.698Z,5.81
2023-05-19T02:20:24.507Z,5.85
2023-05-19T02:21:24.488Z,5.75
2023-05-19T02:22:24.482Z,5.83
2023-05-19T02:23:24.481Z,5.83
2023-05-19T02:24:24.461Z,5.90
2023-05-19T02:25:24.507Z,5.78
2023-05-19T02:26:24.462Z,5.80
2023-05-19T02:27:24.430Z,5.84
2023-05-19T02:28:24.418Z,5.80
2023-05-19T02:29:24.400Z,5.88
2023-05-19T02:30:24.404Z,5.93
2023-05-19T02:31:24.424Z,5.83
2023-05-19T02:32:24.378Z,5.85
2023-05-19T02:33:24.357Z,5.87
2023-05-19T02:34:24.352Z,5.80
2023-05-19T02:35:24.334Z,5.77
2023-05-19T02:36:24.341Z,5.73
2023-05-19T02:37:24.359Z,5.65
2023-05-19T02:38:24.313Z,5.56
2023-05-19T02:39:24.293Z,5.52
2023-05-19T02:40:24.305Z,5.56
2023-05-19T02:41:24.399Z,5.65
2023-05-19T02:42:24.287Z,5.52
2023-05-19T02:43:24.293Z,5.63
2023-05-19T02:44:24.267Z,5.55
2023-05-19T02:45:24.254Z,5.56
2023-05-19T02:46:24.315Z,5.78
2023-05-19T02:47:24.271Z,5.65
2023-05-19T02:48:24.208Z,5.56
2023-05-19T02:49:24.239Z,5.70
2023-05-19T02:50:24.194Z,5.62
2023-05-19T02:51:24.175Z,5.67
2023-05-19T02:52:24.157Z,5.74
2023-05-19T02:53:24.147Z,5.73
2023-05-19T02:54:24.138Z,5.65
2023-05-19T02:55:24.191Z,5.69
2023-05-19T02:56:24.139Z,5.74
2023-05-19T02:57:24.213Z,5.69
2023-05-19T02:58:24.109Z,5.80
2023-05-19T02:59:25.488Z,5.75
2023-05-19T03:00:24.088Z,5.77
2023-05-19T03:01:24.153Z,5.78
2023-05-19T03:02:24.053Z,5.70
2023-05-19T03:03:24.221Z,5.65
2023-05-19T03:04:24.037Z,5.67
2023-05-19T03:05:24.014Z,5.63
2023-05-19T03:06:24.020Z,5.65
2023-05-19T03:07:24.010Z,5.67
2023-05-19T03:08:23.986Z,5.66
2023-05-19T03:09:24.016Z,5.66
2023-05-19T03:10:23.965Z,5.65
2023-05-19T03:11:23.948Z,5.65
2023-05-19T03:12:23.953Z,5.66
2023-05-19T03:13:23.956Z,5.69
2023-05-19T03:14:24.277Z,5.74
2023-05-19T03:15:23.909Z,5.65
2023-05-19T03:16:23.944Z,5.74
2023-05-19T03:17:23.903Z,5.70
2023-05-19T03:18:23.933Z,5.75
2023-05-19T03:19:23.924Z,5.67
2023-05-19T03:20:23.860Z,5.83
2023-05-19T03:21:23.843Z,5.78
2023-05-19T03:22:23.853Z,5.85
2023-05-19T03:23:23.820Z,5.78
2023-05-19T03:24:23.812Z,5.84
2023-05-19T03:25:23.838Z,5.69
2023-05-19T03:26:23.793Z,5.78
2023-05-19T03:27:23.781Z,5.84
2023-05-19T03:28:23.790Z,5.77
2023-05-19T03:29:23.785Z,5.87
2023-05-19T03:30:23.752Z,5.69
2023-05-19T03:31:23.765Z,5.70
2023-05-19T03:32:23.788Z,5.63
2023-05-19T03:33:23.870Z,5.69
2023-05-19T03:34:23.709Z,5.77
2023-05-19T03:35:23.704Z,5.77
2023-05-19T03:36:23.687Z,5.74
2023-05-19T03:37:23.714Z,5.77
2023-05-19T03:38:23.682Z,5.74
2023-05-19T03:39:23.652Z,5.77
2023-05-19T03:40:23.648Z,5.77
2023-05-19T03:41:23.635Z,5.74
2023-05-19T03:42:23.622Z,5.62
2023-05-19T03:43:23.638Z,5.74
2023-05-19T03:44:23.612Z,5.63
2023-05-19T03:45:23.623Z,5.83
2023-05-19T03:46:23.659Z,5.81
2023-05-19T03:47:23.617Z,5.80
2023-05-19T03:48:23.568Z,5.74
2023-05-19T03:49:23.572Z,5.88
2023-05-19T03:50:23.546Z,5.87
2023-05-19T03:51:23.524Z,5.83
2023-05-19T03:52:23.514Z,5.92
2023-05-19T03:53:23.510Z,5.85
2023-05-19T03:54:23.504Z,5.92
2023-05-19T03:55:23.523Z,5.92
2023-05-19T03:56:23.476Z,5.78
2023-05-19T03:57:23.461Z,5.77
2023-05-19T03:58:23.449Z,5.83
2023-05-19T03:59:23.442Z,5.67
2023-05-19T04:00:23.428Z,5.78
2023-05-19T04:01:23.454Z,5.73
2023-05-19T04:02:23.512Z,5.66
2023-05-19T04:03:23.540Z,5.66
2023-05-19T04:04:23.447Z,5.81
2023-05-19T04:05:23.371Z,5.80
2023-05-19T04:06:23.362Z,5.78
2023-05-19T04:07:23.381Z,5.88
2023-05-19T04:08:23.341Z,5.98
2023-05-19T04:09:23.325Z,5.88
2023-05-19T04:10:23.331Z,5.92
2023-05-19T04:11:23.311Z,5.96
2023-05-19T04:12:23.317Z,5.93
2023-05-19T04:13:23.304Z,6.10
2023-05-19T04:14:23.279Z,5.95
2023-05-19T04:15:23.267Z,6.10
2023-05-19T04:16:23.358Z,6.06
2023-05-19T04:17:23.333Z,5.99
2023-05-19T04:18:23.250Z,6.02
2023-05-19T04:19:23.349Z,5.99
2023-05-19T04:20:23.219Z,6.08
2023-05-19T04:21:23.199Z,5.96
2023-05-19T04:22:23.186Z,5.90
2023-05-19T04:23:23.187Z,6.01
2023-05-19T04:24:23.178Z,5.95
2023-05-19T04:25:23.178Z,5.93
2023-05-19T04:26:23.145Z,6.01
2023-05-19T04:27:23.135Z,6.08
2023-05-19T04:28:23.127Z,6.02
2023-05-19T04:29:23.124Z,6.03
2023-05-19T04:30:23.107Z,6.05
2023-05-19T04:31:23.123Z,6.02
2023-05-19T04:32:23.152Z,6.08
2023-05-19T04:33:23.092Z,6.16
2023-05-19T04:34:23.064Z,6.13
2023-05-19T04:35:23.051Z,6.01
2023-05-19T04:36:23.039Z,6.05
2023-05-19T04:37:23.050Z,6.16
2023-05-19T04:38:23.030Z,6.08
2023-05-19T04:39:23.015Z,6.21
2023-05-19T04:40:22.997Z,6.16
2023-05-19T04:41:22.991Z,6.25
2023-05-19T04:42:22.980Z,6.21
2023-05-19T04:43:22.989Z,6.25
2023-05-19T04:44:22.955Z,6.21
2023-05-19T04:45:22.941Z,6.24
2023-05-19T04:46:22.974Z,6.28
2023-05-19T04:47:22.935Z,6.35
2023-05-19T04:48:22.909Z,6.40
2023-05-19T04:49:22.953Z,6.32
2023-05-19T04:50:22.892Z,6.43
2023-05-19T04:51:22.875Z,6.30
2023-05-19T04:52:22.864Z,6.20
2023-05-19T04:53:22.860Z,6.39
2023-05-19T04:54:22.855Z,6.25
2023-05-19T04:55:22.853Z,6.21
2023-05-19T04:56:22.822Z,6.28
2023-05-19T04:57:22.825Z,6.38
2023-05-19T04:58:22.799Z,6.25
2023-05-19T04:59:22.785Z,6.30
2023-05-19T05:00:22.788Z,6.21
2023-05-19T05:01:22.843Z,6.10
2023-05-19T05:02:22.797Z,6.30
2023-05-19T05:03:22.810Z,6.24
2023-05-19T05:04:22.739Z,6.27
2023-05-19T05:05:22.806Z,6.27
2023-05-19T05:06:22.743Z,6.24
2023-05-19T05:07:22.709Z,6.35
2023-05-19T05:08:22.701Z,6.25
2023-05-19T05:09:22.682Z,6.30
2023-05-19T05:10:22.668Z,6.38
2023-05-19T05:11:22.662Z,6.36
2023-05-19T05:12:22.660Z,6.40
2023-05-19T05:13:22.645Z,6.43
2023-05-19T05:14:22.634Z,6.53
2023-05-19T05:15:22.631Z,6.38
2023-05-19T05:16:22.710Z,6.43
2023-05-19T05:17:22.665Z,6.46
2023-05-19T05:18:22.577Z,6.50
2023-05-19T05:19:22.750Z,6.50
2023-05-19T05:20:22.578Z,6.51
2023-05-19T05:21:22.572Z,6.69
2023-05-19T05:22:22.537Z,6.54
2023-05-19T05:23:22.530Z,6.58
2023-05-19T05:24:22.534Z,6.53
2023-05-19T05:25:22.540Z,6.58
2023-05-19T05:26:22.493Z,6.61
2023-05-19T05:27:22.476Z,6.61
2023-05-19T05:28:22.491Z,6.61
2023-05-19T05:29:22.455Z,6.69
2023-05-19T05:30:22.453Z,6.71
2023-05-19T05:31:22.472Z,6.58
2023-05-19T05:32:22.446Z,6.57
2023-05-19T05:33:22.560Z,6.61
2023-05-19T05:34:22.413Z,6.55
2023-05-19T05:35:22.393Z,6.63
2023-05-19T05:36:22.415Z,6.68
2023-05-19T05:37:22.411Z,6.60
2023-05-19T05:38:22.398Z,6.65
2023-05-19T05:39:22.347Z,6.68
2023-05-19T05:40:22.340Z,6.64
2023-05-19T05:41:22.340Z,6.58
2023-05-19T05:42:22.331Z,6.73
2023-05-19T05:43:22.346Z,6.81
2023-05-19T05:44:22.317Z,6.73
2023-05-19T05:45:22.295Z,6.75
2023-05-19T05:46:22.335Z,6.72
2023-05-19T05:47:22.285Z,6.68
2023-05-19T05:48:22.261Z,6.78
2023-05-19T05:49:22.258Z,6.63
2023-05-19T05:50:22.255Z,6.54
2023-05-19T05:51:22.220Z,6.65
2023-05-19T05:52:22.205Z,6.76
2023-05-19T05:53:22.232Z,6.82
2023-05-19T05:54:22.192Z,6.90
2023-05-19T05:55:22.203Z,6.99
2023-05-19T05:56:22.184Z,6.81
2023-05-19T05:57:22.155Z,6.90
2023-05-19T05:58:22.149Z,6.86
2023-05-19T05:59:22.177Z,6.86
2023-05-19T06:00:22.124Z,6.94
2023-05-19T06:01:22.172Z,6.99
2023-05-19T06:02:22.229Z,6.89
2023-05-19T06:03:22.226Z,7.04
2023-05-19T06:04:22.137Z,6.94
2023-05-19T06:05:22.169Z,6.94
2023-05-19T06:06:22.129Z,6.96
2023-05-19T06:07:22.087Z,6.94
2023-05-19T06:08:22.038Z,6.96
2023-05-19T06:09:22.094Z,6.79
2023-05-19T06:10:22.042Z,6.89
2023-05-19T06:11:22.020Z,6.93
2023-05-19T06:12:22.041Z,6.87
2023-05-19T06:13:22.012Z,6.90
2023-05-19T06:14:21.993Z,7.00
2023-05-19T06:15:21.977Z,6.96
2023-05-19T06:16:22.030Z,6.96
2023-05-19T06:17:21.946Z,7.01
2023-05-19T06:18:21.943Z,6.89
2023-05-19T06:19:22.046Z,6.89
2023-05-19T06:20:21.927Z,6.90
2023-05-19T06:21:21.902Z,6.94
2023-05-19T06:22:21.894Z,6.97
2023-05-19T06:23:21.908Z,6.89
2023-05-19T06:24:21.876Z,6.90
2023-05-19T06:25:21.899Z,7.16
2023-05-19T06:26:21.844Z,7.05
2023-05-19T06:27:21.844Z,7.05
2023-05-19T06:28:21.826Z,7.12
2023-05-19T06:29:21.870Z,7.09
2023-05-19T06:30:21.801Z,7.29
2023-05-19T06:31:21.824Z,7.36
2023-05-19T06:32:21.805Z,7.33
2023-05-19T06:33:21.787Z,7.41
2023-05-19T06:34:21.763Z,7.51
2023-05-19T06:35:21.759Z,7.69
2023-05-19T06:36:21.752Z,7.79
2023-05-19T06:37:21.751Z,7.66
2023-05-19T06:38:21.726Z,7.69
2023-05-19T06:39:21.712Z,7.94
2023-05-19T06:40:21.708Z,7.73
2023-05-19T06:41:21.897Z,7.84
2023-05-19T06:42:21.672Z,7.76
2023-05-19T06:43:21.737Z,8.00
2023-05-19T06:44:21.651Z,7.82
2023-05-19T06:45:21.665Z,7.76
2023-05-19T06:46:21.694Z,7.77
2023-05-19T06:47:21.633Z,7.57
2023-05-19T06:48:21.603Z,7.69
2023-05-19T06:49:21.626Z,7.69
2023-05-19T06:50:21.584Z,7.77
2023-05-19T06:51:21.595Z,7.81
2023-05-19T06:52:21.562Z,7.69
2023-05-19T06:53:21.562Z,7.89
2023-05-19T06:54:21.547Z,7.95
2023-05-19T06:55:21.544Z,7.96
2023-05-19T06:56:21.519Z,7.82
2023-05-19T06:57:21.576Z,7.86
2023-05-19T06:58:21.496Z,7.95
2023-05-19T06:59:21.492Z,7.99
2023-05-19T07:00:23.798Z,8.07
2023-05-19T07:01:21.543Z,8.07
2023-05-19T07:02:21.454Z,8.18
2023-05-19T07:03:21.535Z,8.06
2023-05-19T07:04:21.436Z,7.99
2023-05-19T07:05:21.457Z,7.99
2023-05-19T07:06:21.410Z,8.03
2023-05-19T07:07:21.414Z,7.89
2023-05-19T07:08:21.386Z,7.88
2023-05-19T07:09:21.390Z,8.02
2023-05-19T07:10:21.365Z,8.21
2023-05-19T07:11:21.357Z,8.20
2023-05-19T07:12:21.345Z,8.21
2023-05-19T07:13:21.408Z,8.24
2023-05-19T07:14:21.325Z,8.28
2023-05-19T07:15:21.313Z,8.24
2023-05-19T07:16:21.346Z,8.28
2023-05-19T07:17:21.290Z,8.29
2023-05-19T07:18:21.292Z,8.42
2023-05-19T07:19:21.404Z,8.52
2023-05-19T07:20:21.265Z,8.58
2023-05-19T07:21:21.265Z,8.58
2023-05-19T07:22:21.244Z,8.58
2023-05-19T07:23:21.222Z,8.63
2023-05-19T07:24:21.224Z,8.57
2023-05-19T07:25:21.219Z,8.75
2023-05-19T07:26:21.199Z,8.65
2023-05-19T07:27:21.209Z,8.75
2023-05-19T07:28:21.184Z,8.80
2023-05-19T07:29:21.298Z,9.01
2023-05-19T07:30:21.149Z,9.10
2023-05-19T07:31:21.167Z,9.20
2023-05-19T07:32:21.165Z,9.37
2023-05-19T07:33:21.137Z,9.10
2023-05-19T07:34:21.101Z,9.10
2023-05-19T07:35:21.095Z,9.08
2023-05-19T07:36:21.101Z,9.00
2023-05-19T07:37:21.090Z,9.16
2023-05-19T07:38:21.080Z,9.17
2023-05-19T07:39:21.078Z,9.26
2023-05-19T07:40:21.038Z,9.31
2023-05-19T07:41:21.045Z,9.31
2023-05-19T07:42:21.018Z,9.32
2023-05-19T07:43:21.021Z,9.52
2023-05-19T07:44:21.007Z,9.67
2023-05-19T07:45:21.032Z,10.13
2023-05-19T07:46:21.006Z,10.38
2023-05-19T07:47:20.965Z,10.46
2023-05-19T07:48:20.969Z,10.14
2023-05-19T07:49:20.975Z,10.04
2023-05-19T07:50:20.940Z,10.04
2023-05-19T07:51:20.933Z,9.91
2023-05-19T07:52:20.912Z,9.73
2023-05-19T07:53:20.924Z,9.71
2023-05-19T07:54:20.913Z,9.67
2023-05-19T07:55:20.909Z,9.62
2023-05-19T07:56:20.868Z,9.63
2023-05-19T07:57:20.860Z,9.70
2023-05-19T07:58:20.843Z,9.53
2023-05-19T07:59:20.838Z,9.50
2023-05-19T08:00:20.833Z,9.52
2023-05-19T08:01:20.904Z,9.60
2023-05-19T08:02:20.852Z,9.59
2023-05-19T08:03:21.132Z,9.70
2023-05-19T08:04:20.877Z,9.63
2023-05-19T08:05:20.773Z,9.58
2023-05-19T08:06:20.768Z,9.68
2023-05-19T08:07:20.774Z,9.92
2023-05-19T08:08:20.748Z,10.39
2023-05-19T08:09:20.732Z,10.69
2023-05-19T08:10:20.723Z,11.11
2023-05-19T08:11:20.707Z,11.09
2023-05-19T08:12:20.694Z,11.09
2023-05-19T08:13:20.700Z,10.86
2023-05-19T08:14:20.685Z,10.70
2023-05-19T08:15:20.675Z,10.52
2023-05-19T08:16:20.789Z,10.57
2023-05-19T08:17:20.744Z,10.83
2023-05-19T08:18:20.627Z,10.80
2023-05-19T08:19:20.860Z,10.91
2023-05-19T08:20:20.605Z,10.93
2023-05-19T08:21:20.609Z,10.88
2023-05-19T08:22:20.583Z,10.86
2023-05-19T08:23:20.575Z,10.84
2023-05-19T08:24:20.560Z,11.13
2023-05-19T08:25:20.570Z,11.53
2023-05-19T08:26:20.539Z,11.60
2023-05-19T08:27:20.562Z,11.39
2023-05-19T08:28:20.538Z,11.08
2023-05-19T08:29:20.506Z,11.09
2023-05-19T08:30:20.526Z,11.38
2023-05-19T08:31:20.533Z,11.67
2023-05-19T08:32:20.497Z,11.63
2023-05-19T08:33:20.538Z,11.62
2023-05-19T08:34:20.454Z,11.79
2023-05-19T08:35:20.444Z,12.11
2023-05-19T08:36:20.445Z,11.96
2023-05-19T08:37:20.435Z,11.63
2023-05-19T08:38:20.408Z,11.39
2023-05-19T08:39:20.411Z,11.27
2023-05-19T08:40:20.393Z,11.27
2023-05-19T08:41:20.391Z,11.33
2023-05-19T08:42:20.372Z,11.17
2023-05-19T08:43:20.372Z,11.19
2023-05-19T08:44:20.375Z,10.94
2023-05-19T08:45:20.352Z,11.09
2023-05-19T08:46:20.353Z,11.13
2023-05-19T08:47:20.327Z,11.20
2023-05-19T08:48:20.304Z,11.27
2023-05-19T08:49:20.389Z,11.30
2023-05-19T08:50:20.274Z,11.45
2023-05-19T08:51:20.272Z,11.31
2023-05-19T08:52:20.267Z,11.28
2023-05-19T08:53:32.474Z,11.19
2023-05-19T08:54:21.252Z,11.21
2023-05-19T08:55:20.238Z,11.33
2023-05-19T08:56:20.236Z,11.16
2023-05-19T08:57:20.240Z,11.21
2023-05-19T08:58:20.241Z,11.30
2023-05-19T08:59:20.199Z,11.41
2023-05-19T09:00:20.187Z,11.30
2023-05-19T09:01:20.213Z,11.31
2023-05-19T09:02:20.144Z,11.31
2023-05-19T09:04:20.269Z,11.26
2023-05-19T09:05:20.148Z,11.27
2023-05-19T09:06:20.099Z,11.33
2023-05-19T09:07:20.113Z,11.26
2023-05-19T09:08:20.094Z,11.24
2023-05-19T09:09:20.072Z,11.24
2023-05-19T09:10:20.057Z,11.17
2023-05-19T09:11:20.058Z,11.23
2023-05-19T09:12:20.038Z,11.33
2023-05-19T09:13:20.040Z,11.30
2023-05-19T09:14:20.023Z,11.20
2023-05-19T09:15:20.010Z,11.27
2023-05-19T09:16:20.015Z,11.11
2023-05-19T09:17:19.989Z,11.28
2023-05-19T09:18:19.968Z,11.30
2023-05-19T09:19:20.022Z,11.06
2023-05-19T09:20:19.988Z,11.16
2023-05-19T09:21:19.968Z,11.30
2023-05-19T09:22:19.926Z,11.57
2023-05-19T09:23:19.914Z,11.59
2023-05-19T09:24:19.922Z,11.41
2023-05-19T09:25:19.935Z,11.59
2023-05-19T09:26:19.895Z,11.54
2023-05-19T09:27:19.877Z,11.84
2023-05-19T09:28:19.858Z,11.82
2023-05-19T09:29:19.860Z,12.11
2023-05-19T09:30:19.980Z,12.05
2023-05-19T09:31:19.846Z,12.00
2023-05-19T09:32:19.910Z,11.87
2023-05-19T09:33:19.868Z,12.08
2023-05-19T09:34:19.792Z,12.04
2023-05-19T09:35:19.787Z,12.01
2023-05-19T09:36:19.798Z,12.40
2023-05-19T09:37:19.805Z,12.62
2023-05-19T09:38:19.749Z,12.56
2023-05-19T09:39:19.753Z,12.52
2023-05-19T09:40:19.728Z,12.33
2023-05-19T09:41:19.724Z,12.29
2023-05-19T09:42:19.732Z,12.18
2023-05-19T09:43:19.743Z,12.22
2023-05-19T09:44:19.683Z,12.30
2023-05-19T09:45:19.681Z,12.34
2023-05-19T09:46:19.745Z,12.26
2023-05-19T09:47:19.654Z,12.23
2023-05-19T09:48:19.652Z,12.33
2023-05-19T09:49:19.650Z,12.67
2023-05-19T09:50:19.630Z,12.49
2023-05-19T09:51:19.613Z,12.36
2023-05-19T09:52:19.597Z,12.46
2023-05-19T09:53:19.613Z,12.43
2023-05-19T09:54:19.577Z,12.46
2023-05-19T09:55:19.590Z,12.85
2023-05-19T09:56:19.557Z,13.41
2023-05-19T09:57:19.549Z,13.68
2023-05-19T09:58:19.539Z,13.98
2023-05-19T09:59:19.540Z,14.29
2023-05-19T10:00:19.512Z,14.60
2023-05-19T10:01:19.548Z,14.39
2023-05-19T10:02:19.486Z,14.09
2023-05-19T10:03:19.483Z,14.09
2023-05-19T10:04:19.467Z,14.06
2023-05-19T10:05:19.514Z,13.98
2023-05-19T10:06:19.442Z,13.96
2023-05-19T10:07:19.461Z,13.93
2023-05-19T10:08:19.440Z,13.88
2023-05-19T10:09:19.468Z,13.62
2023-05-19T10:10:19.403Z,13.63
2023-05-19T10:11:19.394Z,13.66
2023-05-19T10:12:19.404Z,13.73
2023-05-19T10:13:19.388Z,13.72
2023-05-19T10:14:19.366Z,13.71
2023-05-19T10:15:21.401Z,13.47
2023-05-19T10:16:19.423Z,13.16
2023-05-19T10:17:19.325Z,13.24
2023-05-19T10:18:19.320Z,13.41
2023-05-19T10:19:19.362Z,13.63
2023-05-19T10:20:19.294Z,13.73
2023-05-19T10:21:19.292Z,13.69
2023-05-19T10:22:19.272Z,13.61
2023-05-19T10:23:19.258Z,13.69
2023-05-19T10:24:19.251Z,13.62
2023-05-19T10:25:19.319Z,13.72
2023-05-19T10:26:19.231Z,13.72
2023-05-19T10:27:19.243Z,13.84
2023-05-19T10:28:19.212Z,13.91
2023-05-19T10:29:19.205Z,13.83
2023-05-19T10:30:19.198Z,13.59
2023-05-19T10:31:19.218Z,13.69
2023-05-19T10:32:19.227Z,13.62
2023-05-19T10:33:19.194Z,13.81
2023-05-19T10:34:19.174Z,13.53
2023-05-19T10:35:19.140Z,13.39
2023-05-19T10:36:19.123Z,13.44
2023-05-19T10:37:19.119Z,13.47
2023-05-19T10:38:19.126Z,13.41
2023-05-19T10:39:19.145Z,13.35
2023-05-19T10:40:19.080Z,13.44
2023-05-19T10:41:19.089Z,13.62
2023-05-19T10:42:19.056Z,13.61
2023-05-19T10:43:19.050Z,13.43
2023-05-19T10:44:19.065Z,13.44
2023-05-19T10:45:19.022Z,13.47
2023-05-19T10:46:19.054Z,13.59
2023-05-19T10:47:19.048Z,13.46
2023-05-19T10:48:18.989Z,13.62
2023-05-19T10:49:18.986Z,13.71
2023-05-19T10:50:19.005Z,13.53
2023-05-19T10:51:18.968Z,13.46
2023-05-19T10:52:18.948Z,13.57
2023-05-19T10:53:18.941Z,13.73
2023-05-19T10:54:18.928Z,13.73
2023-05-19T10:55:18.940Z,13.72
2023-05-19T10:56:18.919Z,13.81
2023-05-19T10:57:18.935Z,14.01
2023-05-19T10:58:18.882Z,14.09
2023-05-19T10:59:18.870Z,14.17
2023-05-19T11:00:18.862Z,14.09
2023-05-19T11:01:18.970Z,14.12
2023-05-19T11:02:18.992Z,14.21
2023-05-19T11:03:18.863Z,14.30
2023-05-19T11:04:18.896Z,14.42
2023-05-19T11:05:18.806Z,14.54
2023-05-19T11:06:18.805Z,14.59
2023-05-19T11:07:18.794Z,14.74
2023-05-19T11:08:18.792Z,15.01
2023-05-19T11:09:20.877Z,15.22
2023-05-19T11:10:19.754Z,15.33
2023-05-19T11:11:18.739Z,15.34
2023-05-19T11:12:18.739Z,15.66
2023-05-19T11:13:18.769Z,15.76
2023-05-19T11:14:18.708Z,15.35
2023-05-19T11:15:18.715Z,15.23
2023-05-19T11:16:18.757Z,15.03
2023-05-19T11:17:18.683Z,14.78
2023-05-19T11:18:18.673Z,14.66
2023-05-19T11:19:18.754Z,14.67
2023-05-19T11:20:18.648Z,14.72
2023-05-19T11:21:18.658Z,14.79
2023-05-19T11:22:18.619Z,14.85
2023-05-19T11:23:18.661Z,14.94
2023-05-19T11:24:18.601Z,15.03
2023-05-19T11:25:18.599Z,15.03
2023-05-19T11:26:18.574Z,15.03
2023-05-19T11:27:18.592Z,14.98
2023-05-19T11:28:18.551Z,15.09
2023-05-19T11:29:18.585Z,15.23
2023-05-19T11:30:18.537Z,15.01
2023-05-19T11:31:18.544Z,14.91
2023-05-19T11:32:18.546Z,14.94
2023-05-19T11:33:18.531Z,14.91
2023-05-19T11:34:18.485Z,14.83
2023-05-19T11:35:18.500Z,14.72
2023-05-19T11:36:18.468Z,14.93
2023-05-19T11:37:18.469Z,15.01
2023-05-19T11:38:18.478Z,15.04
2023-05-19T11:39:18.443Z,15.13
2023-05-19T11:40:18.429Z,14.87
2023-05-19T11:41:19.501Z,14.87
2023-05-19T11:42:18.444Z,15.07
2023-05-19T11:43:18.403Z,14.71
2023-05-19T11:44:18.394Z,14.82
2023-05-19T11:45:18.476Z,14.82
2023-05-19T11:46:18.432Z,14.94
2023-05-19T11:47:18.352Z,14.90
2023-05-19T11:48:18.376Z,14.83
2023-05-19T11:49:18.353Z,14.90
2023-05-19T11:50:18.314Z,14.85
2023-05-19T11:51:18.309Z,14.85
2023-05-19T11:52:18.295Z,14.66
2023-05-19T11:53:18.298Z,14.44
2023-05-19T11:54:18.278Z,14.21
2023-05-19T11:55:18.276Z,14.26
2023-05-19T11:56:18.250Z,14.05
2023-05-19T11:57:18.272Z,14.12
2023-05-19T11:58:18.242Z,14.13
2023-05-19T11:59:18.218Z,14.35
2023-05-19T12:00:18.205Z,14.39
2023-05-19T12:01:18.230Z,14.35
2023-05-19T12:02:18.301Z,14.39
2023-05-19T12:03:18.300Z,14.39
2023-05-19T12:04:18.394Z,14.38
2023-05-19T12:05:18.262Z,14.38
2023-05-19T12:06:18.169Z,14.23
2023-05-19T12:07:18.151Z,14.39
2023-05-19T12:08:18.141Z,14.42
2023-05-19T12:09:18.112Z,14.46
2023-05-19T12:10:18.098Z,14.46
2023-05-19T12:11:18.899Z,14.29
2023-05-19T12:12:18.088Z,14.31
2023-05-19T12:13:18.097Z,14.44
2023-05-19T12:14:18.065Z,14.34
2023-05-19T12:15:18.051Z,14.26
2023-05-19T12:16:18.066Z,14.08
2023-05-19T12:17:18.064Z,14.24
2023-05-19T12:18:18.058Z,14.67
2023-05-19T12:19:18.033Z,14.64
2023-05-19T12:20:18.001Z,14.67
2023-05-19T12:21:17.985Z,14.67
2023-05-19T12:22:17.969Z,14.69
2023-05-19T12:23:17.966Z,14.63
2023-05-19T12:24:17.941Z,14.64
2023-05-19T12:25:17.949Z,14.52
2023-05-19T12:26:17.930Z,14.45
2023-05-19T12:27:17.921Z,14.52
2023-05-19T12:28:17.904Z,14.52
2023-05-19T12:29:17.893Z,14.42
2023-05-19T12:30:17.905Z,14.49
2023-05-19T12:31:17.900Z,14.59
2023-05-19T12:32:17.863Z,14.44
2023-05-19T12:33:17.884Z,14.53
2023-05-19T12:34:17.845Z,14.35
2023-05-19T12:35:17.834Z,14.19
2023-05-19T12:36:17.825Z,14.27
2023-05-19T12:37:17.805Z,14.13
2023-05-19T12:38:17.792Z,14.23
2023-05-19T12:39:19.399Z,14.16
2023-05-19T12:40:17.801Z,14.26
2023-05-19T12:41:17.763Z,14.26
2023-05-19T12:42:17.755Z,14.12
2023-05-19T12:43:17.740Z,14.12
2023-05-19T12:44:17.737Z,14.16
2023-05-19T12:45:17.722Z,14.11
2023-05-19T12:46:17.763Z,13.94
2023-05-19T12:47:17.699Z,13.91
2023-05-19T12:48:17.703Z,13.96
2023-05-19T12:49:17.737Z,14.11
2023-05-19T12:50:17.674Z,14.01
2023-05-19T12:51:17.666Z,14.19
2023-05-19T12:52:17.642Z,14.24
2023-05-19T12:53:17.637Z,14.30
2023-05-19T12:54:17.649Z,14.20
2023-05-19T12:55:17.614Z,14.09
2023-05-19T12:56:17.602Z,14.17
2023-05-19T12:57:17.603Z,14.05
2023-05-19T12:58:17.583Z,14.26
2023-05-19T12:59:26.887Z,14.19
2023-05-19T13:00:18.605Z,13.98
2023-05-19T13:01:17.896Z,14.16
2023-05-19T13:02:17.601Z,14.13
2023-05-19T13:03:17.640Z,14.20
2023-05-19T13:04:17.619Z,14.02
2023-05-19T13:05:17.524Z,13.87
2023-05-19T13:06:17.497Z,13.96
2023-05-19T13:07:17.492Z,13.93
2023-05-19T13:08:17.479Z,14.02
2023-05-19T13:09:17.456Z,13.96